sensor_id;sensor_type;location;lat;lon;timestamp;pressure;altitude;pressure_sealevel;temperature
68510;BMP180;55512;50.102;19.958;2024-01-07T00:02:30;97928.80;;;-1.50
68510;BMP180;55512;50.102;19.958;2024-01-07T00:04:59;97933.60;;;-1.50
68510;BMP180;55512;50.102;19.958;2024-01-07T00:07:25;97923.60;;;-1.50
68510;BMP180;55512;50.102;19.958;2024-01-07T00:09:53;97936.60;;;-1.60
68510;BMP180;55512;50.102;19.958;2024-01-07T00:12:19;97931.60;;;-1.62
68510;BMP180;55512;50.102;19.958;2024-01-07T00:14:47;97937.00;;;-1.66
68510;BMP180;55512;50.102;19.958;2024-01-07T00:17:16;97934.20;;;-1.62
68510;BMP180;55512;50.102;19.958;2024-01-07T00:19:45;97933.00;;;-1.68
68510;BMP180;55512;50.102;19.958;2024-01-07T00:22:13;97938.60;;;-1.70
68510;BMP180;55512;50.102;19.958;2024-01-07T00:24:39;97936.40;;;-1.80
68510;BMP180;55512;50.102;19.958;2024-01-07T00:27:07;97940.40;;;-1.80
68510;BMP180;55512;50.102;19.958;2024-01-07T00:29:34;97945.20;;;-1.80
68510;BMP180;55512;50.102;19.958;2024-01-07T00:32:01;97945.00;;;-1.80
68510;BMP180;55512;50.102;19.958;2024-01-07T00:34:31;97946.40;;;-1.80
68510;BMP180;55512;50.102;19.958;2024-01-07T00:36:57;97945.40;;;-1.80
68510;BMP180;55512;50.102;19.958;2024-01-07T00:39:23;97948.00;;;-1.80
68510;BMP180;55512;50.102;19.958;2024-01-07T00:41:48;97953.60;;;-1.80
68510;BMP180;55512;50.102;19.958;2024-01-07T00:44:14;97956.00;;;-1.82
68510;BMP180;55512;50.102;19.958;2024-01-07T00:46:40;97955.00;;;-1.80
68510;BMP180;55512;50.102;19.958;2024-01-07T00:49:06;97959.40;;;-1.80
68510;BMP180;55512;50.102;19.958;2024-01-07T00:51:32;97961.60;;;-1.82
68510;BMP180;55512;50.102;19.958;2024-01-07T00:53:57;97958.20;;;-1.90
68510;BMP180;55512;50.102;19.958;2024-01-07T00:56:35;97963.40;;;-1.90
68510;BMP180;55512;50.102;19.958;2024-01-07T00:59:01;97962.00;;;-1.90
68510;BMP180;55512;50.102;19.958;2024-01-07T01:01:27;97967.00;;;-1.90
68510;BMP180;55512;50.102;19.958;2024-01-07T01:03:53;97963.00;;;-1.90
68510;BMP180;55512;50.102;19.958;2024-01-07T01:06:19;97960.00;;;-1.90
68510;BMP180;55512;50.102;19.958;2024-01-07T01:08:45;97962.80;;;-1.90
68510;BMP180;55512;50.102;19.958;2024-01-07T01:11:11;97963.60;;;-1.90
68510;BMP180;55512;50.102;19.958;2024-01-07T01:13:36;97969.80;;;-1.92
68510;BMP180;55512;50.102;19.958;2024-01-07T01:16:06;97964.60;;;-1.90
68510;BMP180;55512;50.102;19.958;2024-01-07T01:18:40;97972.40;;;-1.90
68510;BMP180;55512;50.102;19.958;2024-01-07T01:21:06;97971.80;;;-1.90
68510;BMP180;55512;50.102;19.958;2024-01-07T01:23:39;97974.00;;;-1.90
68510;BMP180;55512;50.102;19.958;2024-01-07T01:26:04;97976.60;;;-2.00
68510;BMP180;55512;50.102;19.958;2024-01-07T01:28:30;97974.80;;;-2.00
68510;BMP180;55512;50.102;19.958;2024-01-07T01:30:59;97979.00;;;-2.00
68510;BMP180;55512;50.102;19.958;2024-01-07T01:33:25;97974.80;;;-2.00
68510;BMP180;55512;50.102;19.958;2024-01-07T01:35:51;97973.00;;;-2.00
68510;BMP180;55512;50.102;19.958;2024-01-07T01:38:17;97973.60;;;-2.00
68510;BMP180;55512;50.102;19.958;2024-01-07T01:40:42;97980.00;;;-2.00
68510;BMP180;55512;50.102;19.958;2024-01-07T01:43:08;97980.80;;;-2.06
68510;BMP180;55512;50.102;19.958;2024-01-07T01:45:34;97984.60;;;-2.04
68510;BMP180;55512;50.102;19.958;2024-01-07T01:48:00;97983.80;;;-2.02
68510;BMP180;55512;50.102;19.958;2024-01-07T01:50:26;97988.40;;;-2.00
68510;BMP180;55512;50.102;19.958;2024-01-07T01:52:54;97988.80;;;-2.00
68510;BMP180;55512;50.102;19.958;2024-01-07T01:55:24;97990.80;;;-2.00
68510;BMP180;55512;50.102;19.958;2024-01-07T01:57:53;97984.80;;;-2.10
68510;BMP180;55512;50.102;19.958;2024-01-07T02:00:19;97986.40;;;-2.10
68510;BMP180;55512;50.102;19.958;2024-01-07T02:02:45;97988.20;;;-2.14
68510;BMP180;55512;50.102;19.958;2024-01-07T02:05:20;97992.60;;;-2.20
68510;BMP180;55512;50.102;19.958;2024-01-07T02:07:46;97986.20;;;-2.22
68510;BMP180;55512;50.102;19.958;2024-01-07T02:10:11;97995.80;;;-2.26
68510;BMP180;55512;50.102;19.958;2024-01-07T02:12:38;97990.60;;;-2.22
68510;BMP180;55512;50.102;19.958;2024-01-07T02:15:07;97988.80;;;-2.30
68510;BMP180;55512;50.102;19.958;2024-01-07T02:17:33;97991.20;;;-2.30
68510;BMP180;55512;50.102;19.958;2024-01-07T02:19:59;97993.00;;;-2.38
68510;BMP180;55512;50.102;19.958;2024-01-07T02:22:27;97993.60;;;-2.36
68510;BMP180;55512;50.102;19.958;2024-01-07T02:24:53;97991.00;;;-2.40
68510;BMP180;55512;50.102;19.958;2024-01-07T02:27:19;97994.00;;;-2.40
68510;BMP180;55512;50.102;19.958;2024-01-07T02:29:47;97991.20;;;-2.42
68510;BMP180;55512;50.102;19.958;2024-01-07T02:32:13;97990.60;;;-2.46
68510;BMP180;55512;50.102;19.958;2024-01-07T02:34:39;97991.20;;;-2.48
68510;BMP180;55512;50.102;19.958;2024-01-07T02:37:11;97997.60;;;-2.50
68510;BMP180;55512;50.102;19.958;2024-01-07T02:39:37;97993.60;;;-2.50
68510;BMP180;55512;50.102;19.958;2024-01-07T02:42:03;97983.00;;;-2.50
68510;BMP180;55512;50.102;19.958;2024-01-07T02:44:29;97985.00;;;-2.54
68510;BMP180;55512;50.102;19.958;2024-01-07T02:46:55;97991.80;;;-2.60
68510;BMP180;55512;50.102;19.958;2024-01-07T02:49:23;97994.20;;;-2.56
68510;BMP180;55512;50.102;19.958;2024-01-07T02:51:49;97991.40;;;-2.60
68510;BMP180;55512;50.102;19.958;2024-01-07T02:54:16;97994.60;;;-2.60
68510;BMP180;55512;50.102;19.958;2024-01-07T02:56:42;97988.00;;;-2.60
68510;BMP180;55512;50.102;19.958;2024-01-07T02:59:07;97994.80;;;-2.70
68510;BMP180;55512;50.102;19.958;2024-01-07T03:01:36;97994.20;;;-2.70
68510;BMP180;55512;50.102;19.958;2024-01-07T03:04:12;97992.80;;;-2.70
68510;BMP180;55512;50.102;19.958;2024-01-07T03:06:37;98005.00;;;-2.70
68510;BMP180;55512;50.102;19.958;2024-01-07T03:09:07;97997.40;;;-2.80
68510;BMP180;55512;50.102;19.958;2024-01-07T03:11:33;98000.20;;;-2.80
68510;BMP180;55512;50.102;19.958;2024-01-07T03:16:49;97997.40;;;-2.80
68510;BMP180;55512;50.102;19.958;2024-01-07T03:19:21;97994.20;;;-2.90
68510;BMP180;55512;50.102;19.958;2024-01-07T03:21:49;97995.60;;;-2.90
68510;BMP180;55512;50.102;19.958;2024-01-07T03:24:47;97993.40;;;-3.00
68510;BMP180;55512;50.102;19.958;2024-01-07T03:27:16;97995.20;;;-3.00
68510;BMP180;55512;50.102;19.958;2024-01-07T03:29:44;98003.00;;;-3.00
68510;BMP180;55512;50.102;19.958;2024-01-07T03:32:13;98004.20;;;-3.00
68510;BMP180;55512;50.102;19.958;2024-01-07T03:34:39;98003.80;;;-3.00
68510;BMP180;55512;50.102;19.958;2024-01-07T03:37:06;98005.00;;;-3.04
68510;BMP180;55512;50.102;19.958;2024-01-07T03:39:35;97996.80;;;-3.00
68510;BMP180;55512;50.102;19.958;2024-01-07T03:42:06;97999.00;;;-3.10
68510;BMP180;55512;50.102;19.958;2024-01-07T03:44:40;98000.40;;;-3.10
68510;BMP180;55512;50.102;19.958;2024-01-07T03:47:06;98004.80;;;-3.12
68510;BMP180;55512;50.102;19.958;2024-01-07T03:49:32;98001.60;;;-3.20
68510;BMP180;55512;50.102;19.958;2024-01-07T03:51:58;98002.80;;;-3.20
68510;BMP180;55512;50.102;19.958;2024-01-07T03:54:24;97996.20;;;-3.24
68510;BMP180;55512;50.102;19.958;2024-01-07T03:56:57;97997.20;;;-3.24
68510;BMP180;55512;50.102;19.958;2024-01-07T03:59:43;98000.40;;;-3.30
68510;BMP180;55512;50.102;19.958;2024-01-07T04:02:18;98006.80;;;-3.30
68510;BMP180;55512;50.102;19.958;2024-01-07T04:04:44;98005.40;;;-3.32
68510;BMP180;55512;50.102;19.958;2024-01-07T04:07:10;98011.60;;;-3.38
68510;BMP180;55512;50.102;19.958;2024-01-07T04:09:45;98015.60;;;-3.40
68510;BMP180;55512;50.102;19.958;2024-01-07T04:12:23;98021.40;;;-3.40
68510;BMP180;55512;50.102;19.958;2024-01-07T04:15:01;98015.60;;;-3.44
68510;BMP180;55512;50.102;19.958;2024-01-07T04:17:29;98019.00;;;-3.50
68510;BMP180;55512;50.102;19.958;2024-01-07T04:20:15;98013.60;;;-3.50
68510;BMP180;55512;50.102;19.958;2024-01-07T04:23:04;98011.60;;;-3.50
68510;BMP180;55512;50.102;19.958;2024-01-07T04:25:31;98015.60;;;-3.54
68510;BMP180;55512;50.102;19.958;2024-01-07T04:27:57;98018.20;;;-3.60
68510;BMP180;55512;50.102;19.958;2024-01-07T04:30:22;98016.00;;;-3.54
68510;BMP180;55512;50.102;19.958;2024-01-07T04:32:48;98022.00;;;-3.52
68510;BMP180;55512;50.102;19.958;2024-01-07T04:35:14;98029.20;;;-3.60
68510;BMP180;55512;50.102;19.958;2024-01-07T04:37:40;98031.40;;;-3.60
68510;BMP180;55512;50.102;19.958;2024-01-07T04:40:06;98036.40;;;-3.60
68510;BMP180;55512;50.102;19.958;2024-01-07T04:42:35;98036.40;;;-3.60
68510;BMP180;55512;50.102;19.958;2024-01-07T04:45:01;98035.40;;;-3.60
68510;BMP180;55512;50.102;19.958;2024-01-07T04:47:34;98039.40;;;-3.60
68510;BMP180;55512;50.102;19.958;2024-01-07T04:50:09;98036.60;;;-3.60
68510;BMP180;55512;50.102;19.958;2024-01-07T04:52:35;98041.20;;;-3.68
68510;BMP180;55512;50.102;19.958;2024-01-07T04:55:14;98039.80;;;-3.70
68510;BMP180;55512;50.102;19.958;2024-01-07T04:57:46;98045.60;;;-3.80
68510;BMP180;55512;50.102;19.958;2024-01-07T05:00:12;98039.40;;;-3.80
68510;BMP180;55512;50.102;19.958;2024-01-07T05:02:47;98039.00;;;-3.80
68510;BMP180;55512;50.102;19.958;2024-01-07T05:05:22;98045.60;;;-3.80
68510;BMP180;55512;50.102;19.958;2024-01-07T05:08:28;98048.80;;;-3.80
68510;BMP180;55512;50.102;19.958;2024-01-07T05:11:26;98055.80;;;-3.80
68510;BMP180;55512;50.102;19.958;2024-01-07T05:17:50;98058.60;;;-3.80
68510;BMP180;55512;50.102;19.958;2024-01-07T05:20:39;98063.80;;;-3.80
68510;BMP180;55512;50.102;19.958;2024-01-07T05:23:20;98064.00;;;-3.70
68510;BMP180;55512;50.102;19.958;2024-01-07T05:25:47;98062.80;;;-3.70
68510;BMP180;55512;50.102;19.958;2024-01-07T05:28:13;98062.00;;;-3.80
68510;BMP180;55512;50.102;19.958;2024-01-07T05:30:40;98064.00;;;-3.80
68510;BMP180;55512;50.102;19.958;2024-01-07T05:33:06;98063.80;;;-3.80
68510;BMP180;55512;50.102;19.958;2024-01-07T05:35:32;98065.20;;;-3.80
68510;BMP180;55512;50.102;19.958;2024-01-07T05:37:58;98062.20;;;-3.80
68510;BMP180;55512;50.102;19.958;2024-01-07T05:40:27;98059.20;;;-3.80
68510;BMP180;55512;50.102;19.958;2024-01-07T05:42:52;98062.20;;;-3.86
68510;BMP180;55512;50.102;19.958;2024-01-07T05:45:18;98062.40;;;-3.84
68510;BMP180;55512;50.102;19.958;2024-01-07T05:47:47;98067.80;;;-3.80
68510;BMP180;55512;50.102;19.958;2024-01-07T05:50:13;98070.80;;;-3.84
68510;BMP180;55512;50.102;19.958;2024-01-07T05:52:45;98074.60;;;-3.90
68510;BMP180;55512;50.102;19.958;2024-01-07T05:55:13;98070.60;;;-3.90
68510;BMP180;55512;50.102;19.958;2024-01-07T05:57:39;98071.40;;;-3.94
68510;BMP180;55512;50.102;19.958;2024-01-07T06:00:06;98076.40;;;-4.00
68510;BMP180;55512;50.102;19.958;2024-01-07T06:02:38;98079.00;;;-4.00
68510;BMP180;55512;50.102;19.958;2024-01-07T06:05:13;98077.00;;;-4.00
68510;BMP180;55512;50.102;19.958;2024-01-07T06:07:41;98070.80;;;-4.00
68510;BMP180;55512;50.102;19.958;2024-01-07T06:10:10;98072.80;;;-4.06
68510;BMP180;55512;50.102;19.958;2024-01-07T06:12:36;98082.20;;;-4.04
68510;BMP180;55512;50.102;19.958;2024-01-07T06:15:02;98083.40;;;-4.10
68510;BMP180;55512;50.102;19.958;2024-01-07T06:17:27;98090.80;;;-4.10
68510;BMP180;55512;50.102;19.958;2024-01-07T06:20:14;98095.20;;;-4.08
68510;BMP180;55512;50.102;19.958;2024-01-07T06:22:42;98097.40;;;-4.10
68510;BMP180;55512;50.102;19.958;2024-01-07T06:25:10;98095.60;;;-4.10
68510;BMP180;55512;50.102;19.958;2024-01-07T06:27:39;98102.00;;;-4.08
68510;BMP180;55512;50.102;19.958;2024-01-07T06:30:27;98097.40;;;-4.08
68510;BMP180;55512;50.102;19.958;2024-01-07T06:32:53;98099.60;;;-4.10
68510;BMP180;55512;50.102;19.958;2024-01-07T06:35:19;98100.60;;;-4.10
68510;BMP180;55512;50.102;19.958;2024-01-07T06:37:47;98104.40;;;-4.10
68510;BMP180;55512;50.102;19.958;2024-01-07T06:40:12;98101.40;;;-4.14
68510;BMP180;55512;50.102;19.958;2024-01-07T06:42:44;98102.20;;;-4.20
68510;BMP180;55512;50.102;19.958;2024-01-07T06:45:13;98109.00;;;-4.20
68510;BMP180;55512;50.102;19.958;2024-01-07T06:47:41;98112.40;;;-4.20
68510;BMP180;55512;50.102;19.958;2024-01-07T06:50:20;98107.60;;;-4.20
68510;BMP180;55512;50.102;19.958;2024-01-07T06:52:46;98119.80;;;-4.20
68510;BMP180;55512;50.102;19.958;2024-01-07T06:55:12;98117.20;;;-4.28
68510;BMP180;55512;50.102;19.958;2024-01-07T06:57:40;98116.40;;;-4.30
68510;BMP180;55512;50.102;19.958;2024-01-07T07:00:27;98127.20;;;-4.30
68510;BMP180;55512;50.102;19.958;2024-01-07T07:02:53;98125.20;;;-4.30
68510;BMP180;55512;50.102;19.958;2024-01-07T07:05:22;98133.60;;;-4.22
68510;BMP180;55512;50.102;19.958;2024-01-07T07:10:28;98136.00;;;-4.20
68510;BMP180;55512;50.102;19.958;2024-01-07T07:13:05;98137.60;;;-4.30
68510;BMP180;55512;50.102;19.958;2024-01-07T07:15:31;98139.40;;;-4.30
68510;BMP180;55512;50.102;19.958;2024-01-07T07:18:00;98140.40;;;-4.30
68510;BMP180;55512;50.102;19.958;2024-01-07T07:20:26;98148.20;;;-4.30
68510;BMP180;55512;50.102;19.958;2024-01-07T07:22:55;98154.20;;;-4.30
68510;BMP180;55512;50.102;19.958;2024-01-07T07:25:20;98150.20;;;-4.28
68510;BMP180;55512;50.102;19.958;2024-01-07T07:27:49;98153.60;;;-4.26
68510;BMP180;55512;50.102;19.958;2024-01-07T07:30:31;98149.40;;;-4.20
68510;BMP180;55512;50.102;19.958;2024-01-07T07:32:59;98150.60;;;-4.10
68510;BMP180;55512;50.102;19.958;2024-01-07T07:35:25;98154.60;;;-4.10
68510;BMP180;55512;50.102;19.958;2024-01-07T07:37:52;98151.20;;;-4.00
68510;BMP180;55512;50.102;19.958;2024-01-07T07:40:20;98157.60;;;-4.00
68510;BMP180;55512;50.102;19.958;2024-01-07T07:42:46;98158.40;;;-3.90
68510;BMP180;55512;50.102;19.958;2024-01-07T07:45:12;98163.20;;;-3.80
68510;BMP180;55512;50.102;19.958;2024-01-07T07:47:38;98162.40;;;-3.80
68510;BMP180;55512;50.102;19.958;2024-01-07T07:50:07;98172.80;;;-3.70
68510;BMP180;55512;50.102;19.958;2024-01-07T07:52:33;98162.40;;;-3.70
68510;BMP180;55512;50.102;19.958;2024-01-07T07:55:11;98166.60;;;-3.80
68510;BMP180;55512;50.102;19.958;2024-01-07T07:57:37;98171.80;;;-3.80
68510;BMP180;55512;50.102;19.958;2024-01-07T08:00:07;98175.60;;;-3.80
68510;BMP180;55512;50.102;19.958;2024-01-07T08:02:36;98173.00;;;-3.80
68510;BMP180;55512;50.102;19.958;2024-01-07T08:05:02;98179.20;;;-3.80
68510;BMP180;55512;50.102;19.958;2024-01-07T08:07:27;98183.60;;;-3.90
68510;BMP180;55512;50.102;19.958;2024-01-07T08:09:53;98186.80;;;-3.90
68510;BMP180;55512;50.102;19.958;2024-01-07T08:12:25;98189.40;;;-3.88
68510;BMP180;55512;50.102;19.958;2024-01-07T08:14:56;98190.40;;;-3.78
68510;BMP180;55512;50.102;19.958;2024-01-07T08:17:31;98197.20;;;-3.70
68510;BMP180;55512;50.102;19.958;2024-01-07T08:19:58;98197.40;;;-3.80
68510;BMP180;55512;50.102;19.958;2024-01-07T08:22:25;98199.80;;;-3.70
68510;BMP180;55512;50.102;19.958;2024-01-07T08:24:54;98206.80;;;-3.70
68510;BMP180;55512;50.102;19.958;2024-01-07T08:27:20;98197.00;;;-3.60
68510;BMP180;55512;50.102;19.958;2024-01-07T08:29:57;98204.60;;;-3.48
68510;BMP180;55512;50.102;19.958;2024-01-07T08:32:23;98208.60;;;-3.30
68510;BMP180;55512;50.102;19.958;2024-01-07T08:34:50;98210.00;;;-3.20
68510;BMP180;55512;50.102;19.958;2024-01-07T08:37:16;98209.60;;;-3.20
68510;BMP180;55512;50.102;19.958;2024-01-07T08:39:42;98216.40;;;-3.20
68510;BMP180;55512;50.102;19.958;2024-01-07T08:42:17;98213.80;;;-3.10
68510;BMP180;55512;50.102;19.958;2024-01-07T08:44:43;98209.60;;;-3.10
68510;BMP180;55512;50.102;19.958;2024-01-07T08:47:08;98209.60;;;-3.00
68510;BMP180;55512;50.102;19.958;2024-01-07T08:49:34;98212.40;;;-2.98
68510;BMP180;55512;50.102;19.958;2024-01-07T08:52:04;98216.60;;;-2.90
68510;BMP180;55512;50.102;19.958;2024-01-07T08:54:30;98221.20;;;-2.80
68510;BMP180;55512;50.102;19.958;2024-01-07T08:56:58;98225.20;;;-2.80
68510;BMP180;55512;50.102;19.958;2024-01-07T08:59:24;98219.80;;;-2.82
68510;BMP180;55512;50.102;19.958;2024-01-07T09:01:50;98221.40;;;-2.86
68510;BMP180;55512;50.102;19.958;2024-01-07T09:04:16;98224.80;;;-2.90
68510;BMP180;55512;50.102;19.958;2024-01-07T09:06:44;98222.80;;;-2.76
68510;BMP180;55512;50.102;19.958;2024-01-07T09:09:10;98228.00;;;-2.64
68510;BMP180;55512;50.102;19.958;2024-01-07T09:11:36;98227.00;;;-2.64
68510;BMP180;55512;50.102;19.958;2024-01-07T09:14:07;98235.00;;;-2.60
68510;BMP180;55512;50.102;19.958;2024-01-07T09:16:33;98236.20;;;-2.60
68510;BMP180;55512;50.102;19.958;2024-01-07T09:19:06;98229.20;;;-2.70
68510;BMP180;55512;50.102;19.958;2024-01-07T09:21:37;98225.20;;;-2.80
68510;BMP180;55512;50.102;19.958;2024-01-07T09:24:04;98229.20;;;-2.86
68510;BMP180;55512;50.102;19.958;2024-01-07T09:26:29;98232.60;;;-2.80
68510;BMP180;55512;50.102;19.958;2024-01-07T09:28:59;98224.80;;;-2.80
68510;BMP180;55512;50.102;19.958;2024-01-07T09:31:25;98227.40;;;-2.90
68510;BMP180;55512;50.102;19.958;2024-01-07T09:33:54;98230.40;;;-2.80
68510;BMP180;55512;50.102;19.958;2024-01-07T09:36:20;98229.80;;;-2.68
68510;BMP180;55512;50.102;19.958;2024-01-07T09:38:54;98234.80;;;-2.70
68510;BMP180;55512;50.102;19.958;2024-01-07T09:41:44;98227.40;;;-2.70
68510;BMP180;55512;50.102;19.958;2024-01-07T09:44:09;98230.60;;;-2.70
68510;BMP180;55512;50.102;19.958;2024-01-07T09:46:38;98234.00;;;-2.70
68510;BMP180;55512;50.102;19.958;2024-01-07T09:49:05;98227.20;;;-2.70
68510;BMP180;55512;50.102;19.958;2024-01-07T09:51:35;98228.00;;;-2.68
68510;BMP180;55512;50.102;19.958;2024-01-07T09:54:08;98228.80;;;-2.76
68510;BMP180;55512;50.102;19.958;2024-01-07T09:56:56;98224.40;;;-2.80
68510;BMP180;55512;50.102;19.958;2024-01-07T10:00:06;98219.00;;;-2.90
68510;BMP180;55512;50.102;19.958;2024-01-07T10:03:10;98224.00;;;-2.80
68510;BMP180;55512;50.102;19.958;2024-01-07T10:05:35;98231.60;;;-2.78
68510;BMP180;55512;50.102;19.958;2024-01-07T10:11:14;98227.20;;;-2.90
68510;BMP180;55512;50.102;19.958;2024-01-07T10:13:49;98228.80;;;-2.88
68510;BMP180;55512;50.102;19.958;2024-01-07T10:16:18;98235.00;;;-2.80
68510;BMP180;55512;50.102;19.958;2024-01-07T10:18:52;98231.00;;;-2.82
68510;BMP180;55512;50.102;19.958;2024-01-07T10:21:18;98235.60;;;-2.76
68510;BMP180;55512;50.102;19.958;2024-01-07T10:23:44;98232.80;;;-2.70
68510;BMP180;55512;50.102;19.958;2024-01-07T10:26:10;98227.20;;;-2.70
68510;BMP180;55512;50.102;19.958;2024-01-07T10:28:56;98231.20;;;-2.60
68510;BMP180;55512;50.102;19.958;2024-01-07T10:31:39;98228.40;;;-2.50
68510;BMP180;55512;50.102;19.958;2024-01-07T10:34:30;98225.80;;;-2.40
68510;BMP180;55512;50.102;19.958;2024-01-07T10:37:00;98220.60;;;-2.50
68510;BMP180;55512;50.102;19.958;2024-01-07T10:39:50;98216.40;;;-2.60
68510;BMP180;55512;50.102;19.958;2024-01-07T10:43:06;98212.20;;;-2.60
68510;BMP180;55512;50.102;19.958;2024-01-07T10:45:55;98207.80;;;-2.70
68510;BMP180;55512;50.102;19.958;2024-01-07T10:48:30;98215.00;;;-2.60
68510;BMP180;55512;50.102;19.958;2024-01-07T10:51:21;98211.20;;;-2.60
68510;BMP180;55512;50.102;19.958;2024-01-07T10:53:59;98210.60;;;-2.60
68510;BMP180;55512;50.102;19.958;2024-01-07T10:56:48;98211.20;;;-2.70
68510;BMP180;55512;50.102;19.958;2024-01-07T10:59:19;98208.40;;;-2.70
68510;BMP180;55512;50.102;19.958;2024-01-07T11:01:45;98206.40;;;-2.60
68510;BMP180;55512;50.102;19.958;2024-01-07T11:05:02;98204.60;;;-2.60
68510;BMP180;55512;50.102;19.958;2024-01-07T11:07:41;98205.00;;;-2.70
68510;BMP180;55512;50.102;19.958;2024-01-07T11:10:27;98200.60;;;-2.80
68510;BMP180;55512;50.102;19.958;2024-01-07T11:12:57;98204.20;;;-2.80
68510;BMP180;55512;50.102;19.958;2024-01-07T11:16:07;98204.60;;;-2.76
68510;BMP180;55512;50.102;19.958;2024-01-07T11:18:46;98210.60;;;-2.70
68510;BMP180;55512;50.102;19.958;2024-01-07T11:21:21;98212.00;;;-2.70
68510;BMP180;55512;50.102;19.958;2024-01-07T11:24:05;98214.00;;;-2.58
68510;BMP180;55512;50.102;19.958;2024-01-07T11:26:34;98215.20;;;-2.40
68510;BMP180;55512;50.102;19.958;2024-01-07T11:29:03;98216.40;;;-2.30
68510;BMP180;55512;50.102;19.958;2024-01-07T11:31:47;98216.20;;;-2.20
68510;BMP180;55512;50.102;19.958;2024-01-07T11:34:42;98220.80;;;-2.10
68510;BMP180;55512;50.102;19.958;2024-01-07T11:37:37;98215.20;;;-2.20
68510;BMP180;55512;50.102;19.958;2024-01-07T11:40:13;98222.60;;;-2.20
68510;BMP180;55512;50.102;19.958;2024-01-07T11:43:07;98219.40;;;-2.20
68510;BMP180;55512;50.102;19.958;2024-01-07T11:45:56;98224.40;;;-2.30
68510;BMP180;55512;50.102;19.958;2024-01-07T11:48:36;98222.40;;;-2.50
68510;BMP180;55512;50.102;19.958;2024-01-07T11:51:01;98228.80;;;-2.60
68510;BMP180;55512;50.102;19.958;2024-01-07T11:53:27;98229.20;;;-2.66
68510;BMP180;55512;50.102;19.958;2024-01-07T11:55:53;98232.20;;;-2.50
68510;BMP180;55512;50.102;19.958;2024-01-07T11:58:19;98231.60;;;-2.50
68510;BMP180;55512;50.102;19.958;2024-01-07T12:00:48;98230.00;;;-2.60
68510;BMP180;55512;50.102;19.958;2024-01-07T12:03:15;98227.00;;;-2.60
68510;BMP180;55512;50.102;19.958;2024-01-07T12:05:41;98224.40;;;-2.56
68510;BMP180;55512;50.102;19.958;2024-01-07T12:08:10;98226.60;;;-2.60
68510;BMP180;55512;50.102;19.958;2024-01-07T12:10:37;98227.20;;;-2.50
68510;BMP180;55512;50.102;19.958;2024-01-07T12:13:03;98231.20;;;-2.40
68510;BMP180;55512;50.102;19.958;2024-01-07T12:15:30;98236.00;;;-2.40
68510;BMP180;55512;50.102;19.958;2024-01-07T12:17:58;98236.40;;;-2.30
68510;BMP180;55512;50.102;19.958;2024-01-07T12:20:25;98242.80;;;-2.20
68510;BMP180;55512;50.102;19.958;2024-01-07T12:22:51;98242.60;;;-2.16
68510;BMP180;55512;50.102;19.958;2024-01-07T12:25:23;98247.20;;;-2.20
68510;BMP180;55512;50.102;19.958;2024-01-07T12:27:51;98248.20;;;-2.40
68510;BMP180;55512;50.102;19.958;2024-01-07T12:30:20;98240.80;;;-2.50
68510;BMP180;55512;50.102;19.958;2024-01-07T12:32:48;98245.40;;;-2.54
68510;BMP180;55512;50.102;19.958;2024-01-07T12:35:16;98242.20;;;-2.50
68510;BMP180;55512;50.102;19.958;2024-01-07T12:37:43;98255.60;;;-2.60
68510;BMP180;55512;50.102;19.958;2024-01-07T12:40:10;98246.80;;;-2.60
68510;BMP180;55512;50.102;19.958;2024-01-07T12:42:40;98259.60;;;-2.78
68510;BMP180;55512;50.102;19.958;2024-01-07T12:45:12;98257.60;;;-2.60
68510;BMP180;55512;50.102;19.958;2024-01-07T12:47:41;98267.20;;;-2.50
68510;BMP180;55512;50.102;19.958;2024-01-07T12:50:09;98271.20;;;-2.52
68510;BMP180;55512;50.102;19.958;2024-01-07T12:52:39;98268.80;;;-2.50
68510;BMP180;55512;50.102;19.958;2024-01-07T12:55:08;98270.40;;;-2.50
68510;BMP180;55512;50.102;19.958;2024-01-07T12:57:34;98269.80;;;-2.62
68510;BMP180;55512;50.102;19.958;2024-01-07T13:00:00;98272.20;;;-2.70
68510;BMP180;55512;50.102;19.958;2024-01-07T13:02:32;98274.00;;;-2.68
68510;BMP180;55512;50.102;19.958;2024-01-07T13:04:59;98281.80;;;-2.70
68510;BMP180;55512;50.102;19.958;2024-01-07T13:07:34;98275.00;;;-2.70
68510;BMP180;55512;50.102;19.958;2024-01-07T13:10:00;98285.20;;;-2.70
68510;BMP180;55512;50.102;19.958;2024-01-07T13:12:26;98283.20;;;-2.70
68510;BMP180;55512;50.102;19.958;2024-01-07T13:14:52;98285.40;;;-2.72
68510;BMP180;55512;50.102;19.958;2024-01-07T13:17:18;98287.00;;;-2.80
68510;BMP180;55512;50.102;19.958;2024-01-07T13:19:47;98289.80;;;-2.90
68510;BMP180;55512;50.102;19.958;2024-01-07T13:22:27;98290.60;;;-3.00
68510;BMP180;55512;50.102;19.958;2024-01-07T13:24:56;98296.80;;;-3.06
68510;BMP180;55512;50.102;19.958;2024-01-07T13:27:25;98302.60;;;-3.20
68510;BMP180;55512;50.102;19.958;2024-01-07T13:29:51;98306.20;;;-3.20
68510;BMP180;55512;50.102;19.958;2024-01-07T13:32:44;98298.40;;;-3.20
68510;BMP180;55512;50.102;19.958;2024-01-07T13:35:09;98304.40;;;-3.14
68510;BMP180;55512;50.102;19.958;2024-01-07T13:37:44;98302.60;;;-3.10
68510;BMP180;55512;50.102;19.958;2024-01-07T13:40:12;98310.40;;;-3.20
68510;BMP180;55512;50.102;19.958;2024-01-07T13:42:49;98301.60;;;-3.30
68510;BMP180;55512;50.102;19.958;2024-01-07T13:45:17;98310.20;;;-3.50
68510;BMP180;55512;50.102;19.958;2024-01-07T13:47:49;98316.00;;;-3.56
68510;BMP180;55512;50.102;19.958;2024-01-07T13:50:20;98316.40;;;-3.60
68510;BMP180;55512;50.102;19.958;2024-01-07T13:52:51;98321.80;;;-3.68
68510;BMP180;55512;50.102;19.958;2024-01-07T13:55:46;98318.40;;;-3.80
68510;BMP180;55512;50.102;19.958;2024-01-07T13:58:12;98316.00;;;-3.80
68510;BMP180;55512;50.102;19.958;2024-01-07T14:00:40;98320.00;;;-3.88
68510;BMP180;55512;50.102;19.958;2024-01-07T14:03:07;98327.80;;;-3.90
68510;BMP180;55512;50.102;19.958;2024-01-07T14:05:33;98330.20;;;-4.06
68510;BMP180;55512;50.102;19.958;2024-01-07T14:08:01;98328.20;;;-4.14
68510;BMP180;55512;50.102;19.958;2024-01-07T14:10:30;98337.00;;;-4.20
68510;BMP180;55512;50.102;19.958;2024-01-07T14:12:56;98342.20;;;-4.30
68510;BMP180;55512;50.102;19.958;2024-01-07T14:15:22;98342.00;;;-4.30
68510;BMP180;55512;50.102;19.958;2024-01-07T14:17:48;98353.20;;;-4.30
68510;BMP180;55512;50.102;19.958;2024-01-07T14:20:14;98351.60;;;-4.30
68510;BMP180;55512;50.102;19.958;2024-01-07T14:22:40;98352.40;;;-4.32
68510;BMP180;55512;50.102;19.958;2024-01-07T14:25:06;98354.40;;;-4.30
68510;BMP180;55512;50.102;19.958;2024-01-07T14:27:32;98361.20;;;-4.30
68510;BMP180;55512;50.102;19.958;2024-01-07T14:30:04;98357.60;;;-4.30